This is the latest recevied weather packets stored in our database for station/object GW1482. If no packets are shown the sender has not sent any weather packets the latest 10 day(s).
| Time | Temp. | Humidity | Pressure | Rain* | Wind** | Luminosity | Snow |
|---|---|---|---|---|---|---|---|
| 1777452313 | 12.22° C | 98% | 999.3 hPa | 0 mm | - | - | - |
| 1777450150 | 12.22° C | 97% | 999.3 hPa | 0 mm | - | - | - |
| 1777449460 | 12.22° C | 97% | 998.9 hPa | 0 mm | - | - | - |
| 1777449099 | 12.22° C | 97% | 999.6 hPa | 0 mm | - | - | - |
| 1777437932 | 15° C | 86% | 1001.3 hPa | 0 mm | - | - | - |
| 1777435752 | 15.56° C | 84% | 1001.6 hPa | 0 mm | - | - | - |
| 1777434673 | 16.11° C | 83% | 1001.6 hPa | 5.84 mm | - | - | - |
| 1777432540 | 16.11° C | 82% | 1002.3 hPa | 5.84 mm | - | - | - |
| 1777431091 | 15.56° C | 82% | 1002.3 hPa | 5.84 mm | - | - | - |
| 1777427123 | 16.67° C | 80% | 1002 hPa | 5.84 mm | - | - | - |
| 1777426061 | 16.67° C | 79% | 1001.6 hPa | 5.84 mm | - | - | - |
| 1777425343 | 16.67° C | 77% | 1001.6 hPa | 5.84 mm | - | - | - |
| 1777423167 | 17.22° C | 76% | 1001.3 hPa | 5.84 mm | - | - | - |
| 1777421013 | 16.67° C | 79% | 1000.6 hPa | 5.84 mm | - | - | - |
| 1777418847 | 18.89° C | 69% | 1000.3 hPa | 5.84 mm | - | - | - |
| 1777416343 | 20° C | 65% | 1001 hPa | 5.84 mm | - | - | - |
| 1777414910 | 20.56° C | 64% | 1001.6 hPa | 5.84 mm | - | - | - |
| 1777414553 | 21.11° C | 64% | 1001.6 hPa | 5.84 mm | - | - | - |
| 1777413105 | 21.11° C | 63% | 1001.6 hPa | 5.84 mm | - | - | - |
| 1777412748 | 21.11° C | 62% | 1002 hPa | 5.84 mm | - | - | - |
| 1777409148 | 21.67° C | 62% | 1001.6 hPa | 5.84 mm | - | - | - |
| 1777408035 | 22.22° C | 63% | 1001.6 hPa | 5.84 mm | - | - | - |
| 1777407340 | 20° C | 69% | 1002 hPa | 5.84 mm | - | - | - |
| 1777402990 | 20° C | 69% | 1002.3 hPa | 5.84 mm | - | - | - |
| 1777400860 | 18.89° C | 75% | 1002.3 hPa | 5.84 mm | - | - | - |
* Rain since midnight (hover to see other rain measurements)
** Current wind speed in m/s (hover to see current wind gust speed)